sensor_id;sensor_type;location;lat;lon;timestamp;P1;durP1;ratioP1;P2;durP2;ratioP2
6436;SDS011;3251;53.550;9.918;2023-09-07T05:40:12;8.90;;;7.43;;
6436;SDS011;3251;53.550;9.918;2023-09-07T05:42:38;7.37;;;6.73;;
6436;SDS011;3251;53.550;9.918;2023-09-07T05:45:04;9.60;;;7.30;;
6436;SDS011;3251;53.550;9.918;2023-09-07T05:47:30;9.60;;;6.63;;
6436;SDS011;3251;53.550;9.918;2023-09-07T05:49:57;7.47;;;6.47;;
6436;SDS011;3251;53.550;9.918;2023-09-07T05:52:23;8.17;;;7.40;;
6436;SDS011;3251;53.550;9.918;2023-09-07T05:54:49;6.40;;;5.83;;
6436;SDS011;3251;53.550;9.918;2023-09-07T05:57:15;18.83;;;6.47;;
6436;SDS011;3251;53.550;9.918;2023-09-07T05:59:42;12.33;;;6.07;;
6436;SDS011;3251;53.550;9.918;2023-09-07T06:02:08;6.80;;;5.90;;
6436;SDS011;3251;53.550;9.918;2023-09-07T06:04:34;14.23;;;6.73;;
6436;SDS011;3251;53.550;9.918;2023-09-07T06:07:01;8.40;;;7.57;;
6436;SDS011;3251;53.550;9.918;2023-09-07T06:09:28;9.97;;;6.70;;
6436;SDS011;3251;53.550;9.918;2023-09-07T06:11:54;9.07;;;6.57;;
6436;SDS011;3251;53.550;9.918;2023-09-07T06:14:20;9.53;;;7.50;;
6436;SDS011;3251;53.550;9.918;2023-09-07T06:16:47;15.50;;;6.70;;
6436;SDS011;3251;53.550;9.918;2023-09-07T06:19:13;7.87;;;6.03;;
6436;SDS011;3251;53.550;9.918;2023-09-07T06:21:39;12.33;;;7.20;;
6436;SDS011;3251;53.550;9.918;2023-09-07T06:24:05;7.17;;;6.57;;
6436;SDS011;3251;53.550;9.918;2023-09-07T06:26:32;6.57;;;6.07;;
6436;SDS011;3251;53.550;9.918;2023-09-07T06:28:58;8.97;;;7.43;;
6436;SDS011;3251;53.550;9.918;2023-09-07T06:31:24;8.33;;;6.90;;
6436;SDS011;3251;53.550;9.918;2023-09-07T06:33:51;8.40;;;7.50;;
6436;SDS011;3251;53.550;9.918;2023-09-07T06:36:17;31.57;;;22.07;;
6436;SDS011;3251;53.550;9.918;2023-09-07T06:38:43;9.70;;;7.63;;
6436;SDS011;3251;53.550;9.918;2023-09-07T06:41:09;8.77;;;7.70;;
6436;SDS011;3251;53.550;9.918;2023-09-07T06:43:37;11.53;;;8.90;;
6436;SDS011;3251;53.550;9.918;2023-09-07T06:46:06;9.20;;;7.07;;
6436;SDS011;3251;53.550;9.918;2023-09-07T06:48:33;6.67;;;5.93;;
6436;SDS011;3251;53.550;9.918;2023-09-07T06:51:03;8.67;;;6.63;;
6436;SDS011;3251;53.550;9.918;2023-09-07T06:53:30;6.13;;;5.20;;
6436;SDS011;3251;53.550;9.918;2023-09-07T06:56:00;7.43;;;6.63;;
6436;SDS011;3251;53.550;9.918;2023-09-07T06:58:26;13.43;;;7.63;;
6436;SDS011;3251;53.550;9.918;2023-09-07T07:00:58;11.67;;;6.43;;
6436;SDS011;3251;53.550;9.918;2023-09-07T07:03:26;5.87;;;5.37;;
6436;SDS011;3251;53.550;9.918;2023-09-07T07:05:52;6.40;;;5.90;;
6436;SDS011;3251;53.550;9.918;2023-09-07T07:08:18;7.43;;;5.87;;
6436;SDS011;3251;53.550;9.918;2023-09-07T07:10:44;12.60;;;7.73;;
6436;SDS011;3251;53.550;9.918;2023-09-07T07:13:11;7.07;;;6.47;;
6436;SDS011;3251;53.550;9.918;2023-09-07T07:15:37;9.40;;;7.20;;
6436;SDS011;3251;53.550;9.918;2023-09-07T07:18:03;57.53;;;26.93;;
6436;SDS011;3251;53.550;9.918;2023-09-07T07:20:42;22.00;;;13.63;;
6436;SDS011;3251;53.550;9.918;2023-09-07T07:23:11;15.57;;;8.30;;
6436;SDS011;3251;53.550;9.918;2023-09-07T07:25:38;16.07;;;9.00;;
6436;SDS011;3251;53.550;9.918;2023-09-07T07:28:05;10.57;;;7.80;;
6436;SDS011;3251;53.550;9.918;2023-09-07T07:30:33;8.77;;;6.67;;
6436;SDS011;3251;53.550;9.918;2023-09-07T07:32:59;14.03;;;6.63;;
6436;SDS011;3251;53.550;9.918;2023-09-07T07:35:25;6.80;;;6.20;;
6436;SDS011;3251;53.550;9.918;2023-09-07T07:37:52;6.30;;;5.80;;
6436;SDS011;3251;53.550;9.918;2023-09-07T07:40:19;8.87;;;6.17;;
6436;SDS011;3251;53.550;9.918;2023-09-07T07:42:46;12.93;;;6.33;;
6436;SDS011;3251;53.550;9.918;2023-09-07T07:45:13;13.00;;;6.50;;
6436;SDS011;3251;53.550;9.918;2023-09-07T07:47:41;7.70;;;6.60;;
6436;SDS011;3251;53.550;9.918;2023-09-07T07:50:07;15.37;;;6.53;;
6436;SDS011;3251;53.550;9.918;2023-09-07T07:52:33;11.60;;;6.33;;
6436;SDS011;3251;53.550;9.918;2023-09-07T07:55:00;13.53;;;6.80;;
6436;SDS011;3251;53.550;9.918;2023-09-07T07:57:26;8.07;;;6.40;;
6436;SDS011;3251;53.550;9.918;2023-09-07T07:59:52;6.63;;;6.00;;
6436;SDS011;3251;53.550;9.918;2023-09-07T08:02:19;25.87;;;10.87;;
6436;SDS011;3251;53.550;9.918;2023-09-07T08:04:45;7.90;;;6.23;;
6436;SDS011;3251;53.550;9.918;2023-09-07T08:07:12;8.40;;;6.00;;
6436;SDS011;3251;53.550;9.918;2023-09-07T08:09:38;11.13;;;6.87;;
6436;SDS011;3251;53.550;9.918;2023-09-07T08:12:05;9.10;;;5.73;;
6436;SDS011;3251;53.550;9.918;2023-09-07T08:14:32;15.93;;;6.90;;
6436;SDS011;3251;53.550;9.918;2023-09-07T08:17:01;6.90;;;6.20;;
6436;SDS011;3251;53.550;9.918;2023-09-07T08:19:27;7.90;;;5.63;;
6436;SDS011;3251;53.550;9.918;2023-09-07T08:21:55;11.37;;;6.10;;
6436;SDS011;3251;53.550;9.918;2023-09-07T08:24:21;12.43;;;7.20;;
6436;SDS011;3251;53.550;9.918;2023-09-07T08:26:47;9.90;;;5.90;;
6436;SDS011;3251;53.550;9.918;2023-09-07T08:29:16;9.30;;;5.80;;
6436;SDS011;3251;53.550;9.918;2023-09-07T08:31:45;7.37;;;6.77;;
6436;SDS011;3251;53.550;9.918;2023-09-07T08:34:13;7.17;;;6.30;;
6436;SDS011;3251;53.550;9.918;2023-09-07T08:36:40;8.67;;;6.20;;
6436;SDS011;3251;53.550;9.918;2023-09-07T08:39:07;17.37;;;5.83;;
6436;SDS011;3251;53.550;9.918;2023-09-07T08:41:38;6.87;;;5.97;;
6436;SDS011;3251;53.550;9.918;2023-09-07T08:44:27;5.83;;;5.40;;
6436;SDS011;3251;53.550;9.918;2023-09-07T08:46:57;6.23;;;5.63;;
6436;SDS011;3251;53.550;9.918;2023-09-07T08:49:23;9.40;;;6.20;;
6436;SDS011;3251;53.550;9.918;2023-09-07T08:51:49;14.27;;;5.63;;
6436;SDS011;3251;53.550;9.918;2023-09-07T08:54:16;12.33;;;5.70;;
6436;SDS011;3251;53.550;9.918;2023-09-07T08:56:44;17.67;;;5.80;;
6436;SDS011;3251;53.550;9.918;2023-09-07T08:59:10;9.40;;;6.57;;
6436;SDS011;3251;53.550;9.918;2023-09-07T09:01:36;7.40;;;6.70;;
6436;SDS011;3251;53.550;9.918;2023-09-07T09:04:02;10.20;;;7.07;;
6436;SDS011;3251;53.550;9.918;2023-09-07T09:06:29;9.80;;;7.27;;
6436;SDS011;3251;53.550;9.918;2023-09-07T09:08:56;7.93;;;6.27;;
6436;SDS011;3251;53.550;9.918;2023-09-07T09:11:23;10.10;;;6.50;;
6436;SDS011;3251;53.550;9.918;2023-09-07T09:13:49;8.97;;;6.77;;
6436;SDS011;3251;53.550;9.918;2023-09-07T09:16:16;15.37;;;7.33;;
6436;SDS011;3251;53.550;9.918;2023-09-07T09:18:52;9.87;;;6.80;;
6436;SDS011;3251;53.550;9.918;2023-09-07T09:21:19;8.30;;;6.60;;
6436;SDS011;3251;53.550;9.918;2023-09-07T09:23:47;6.63;;;5.80;;
6436;SDS011;3251;53.550;9.918;2023-09-07T09:26:14;21.27;;;5.97;;
6436;SDS011;3251;53.550;9.918;2023-09-07T09:28:40;6.67;;;6.03;;
6436;SDS011;3251;53.550;9.918;2023-09-07T09:31:06;7.10;;;5.87;;
6436;SDS011;3251;53.550;9.918;2023-09-07T09:33:37;6.80;;;6.10;;
6436;SDS011;3251;53.550;9.918;2023-09-07T09:36:04;11.57;;;6.97;;
6436;SDS011;3251;53.550;9.918;2023-09-07T09:38:30;13.10;;;5.47;;
6436;SDS011;3251;53.550;9.918;2023-09-07T09:40:57;5.83;;;5.30;;
6436;SDS011;3251;53.550;9.918;2023-09-07T09:43:24;6.50;;;5.90;;
6436;SDS011;3251;53.550;9.918;2023-09-07T09:45:51;7.03;;;6.43;;
6436;SDS011;3251;53.550;9.918;2023-09-07T09:48:20;8.43;;;5.73;;
6436;SDS011;3251;53.550;9.918;2023-09-07T09:50:47;12.60;;;4.97;;
6436;SDS011;3251;53.550;9.918;2023-09-07T09:53:17;9.10;;;5.20;;
6436;SDS011;3251;53.550;9.918;2023-09-07T09:55:49;7.60;;;6.20;;
6436;SDS011;3251;53.550;9.918;2023-09-07T09:58:16;7.10;;;4.90;;
6436;SDS011;3251;53.550;9.918;2023-09-07T10:00:46;11.47;;;5.00;;
6436;SDS011;3251;53.550;9.918;2023-09-07T10:03:18;14.87;;;5.80;;
6436;SDS011;3251;53.550;9.918;2023-09-07T10:05:45;10.87;;;4.13;;
6436;SDS011;3251;53.550;9.918;2023-09-07T10:08:15;6.83;;;5.43;;
6436;SDS011;3251;53.550;9.918;2023-09-07T10:10:43;6.03;;;5.43;;
6436;SDS011;3251;53.550;9.918;2023-09-07T10:13:12;4.90;;;4.43;;
6436;SDS011;3251;53.550;9.918;2023-09-07T10:15:39;10.03;;;5.07;;
6436;SDS011;3251;53.550;9.918;2023-09-07T10:18:14;4.67;;;4.30;;
6436;SDS011;3251;53.550;9.918;2023-09-07T10:20:57;6.77;;;5.40;;
6436;SDS011;3251;53.550;9.918;2023-09-07T10:23:36;7.70;;;4.30;;
6436;SDS011;3251;53.550;9.918;2023-09-07T10:26:03;7.07;;;5.10;;
6436;SDS011;3251;53.550;9.918;2023-09-07T10:28:30;9.40;;;4.70;;
6436;SDS011;3251;53.550;9.918;2023-09-07T10:31:00;3.37;;;3.10;;
6436;SDS011;3251;53.550;9.918;2023-09-07T10:33:29;7.23;;;5.43;;
6436;SDS011;3251;53.550;9.918;2023-09-07T10:35:55;11.13;;;4.53;;
6436;SDS011;3251;53.550;9.918;2023-09-07T10:38:22;4.20;;;3.90;;
6436;SDS011;3251;53.550;9.918;2023-09-07T10:40:49;6.03;;;4.40;;
6436;SDS011;3251;53.550;9.918;2023-09-07T10:43:22;5.90;;;4.70;;
6436;SDS011;3251;53.550;9.918;2023-09-07T10:45:49;5.20;;;4.77;;
6436;SDS011;3251;53.550;9.918;2023-09-07T10:48:15;11.43;;;4.07;;
6436;SDS011;3251;53.550;9.918;2023-09-07T10:50:45;12.43;;;4.83;;
6436;SDS011;3251;53.550;9.918;2023-09-07T10:53:15;4.43;;;4.03;;
6436;SDS011;3251;53.550;9.918;2023-09-07T10:55:49;5.93;;;3.90;;
6436;SDS011;3251;53.550;9.918;2023-09-07T10:58:32;6.17;;;4.03;;
6436;SDS011;3251;53.550;9.918;2023-09-07T11:00:59;5.67;;;4.63;;
6436;SDS011;3251;53.550;9.918;2023-09-07T11:03:26;8.10;;;4.67;;
6436;SDS011;3251;53.550;9.918;2023-09-07T11:05:55;9.53;;;5.10;;
6436;SDS011;3251;53.550;9.918;2023-09-07T11:08:25;8.83;;;4.17;;
6436;SDS011;3251;53.550;9.918;2023-09-07T11:10:53;7.60;;;3.90;;
6436;SDS011;3251;53.550;9.918;2023-09-07T11:13:19;15.77;;;4.10;;
6436;SDS011;3251;53.550;9.918;2023-09-07T11:15:46;5.30;;;4.07;;
6436;SDS011;3251;53.550;9.918;2023-09-07T11:18:12;4.20;;;3.90;;
6436;SDS011;3251;53.550;9.918;2023-09-07T11:20:38;13.80;;;3.70;;
6436;SDS011;3251;53.550;9.918;2023-09-07T11:23:05;6.00;;;4.30;;
6436;SDS011;3251;53.550;9.918;2023-09-07T11:25:35;6.43;;;4.20;;
6436;SDS011;3251;53.550;9.918;2023-09-07T11:28:02;3.90;;;3.70;;
6436;SDS011;3251;53.550;9.918;2023-09-07T11:30:28;3.77;;;3.47;;
6436;SDS011;3251;53.550;9.918;2023-09-07T11:33:05;8.23;;;4.10;;
6436;SDS011;3251;53.550;9.918;2023-09-07T11:35:31;8.10;;;3.60;;
6436;SDS011;3251;53.550;9.918;2023-09-07T11:38:01;3.93;;;3.63;;
6436;SDS011;3251;53.550;9.918;2023-09-07T11:40:29;5.83;;;3.80;;
6436;SDS011;3251;53.550;9.918;2023-09-07T11:42:55;6.50;;;4.13;;
6436;SDS011;3251;53.550;9.918;2023-09-07T11:45:21;3.83;;;3.13;;
6436;SDS011;3251;53.550;9.918;2023-09-07T11:47:47;10.50;;;4.43;;
6436;SDS011;3251;53.550;9.918;2023-09-07T11:50:16;3.93;;;3.63;;
6436;SDS011;3251;53.550;9.918;2023-09-07T11:52:42;3.90;;;3.57;;
6436;SDS011;3251;53.550;9.918;2023-09-07T11:55:08;4.30;;;3.90;;
6436;SDS011;3251;53.550;9.918;2023-09-07T11:57:36;3.67;;;3.43;;
6436;SDS011;3251;53.550;9.918;2023-09-07T12:00:04;3.97;;;3.60;;
6436;SDS011;3251;53.550;9.918;2023-09-07T12:02:39;4.63;;;4.43;;
6436;SDS011;3251;53.550;9.918;2023-09-07T12:05:06;4.80;;;4.00;;
6436;SDS011;3251;53.550;9.918;2023-09-07T12:07:39;3.87;;;3.57;;
6436;SDS011;3251;53.550;9.918;2023-09-07T12:10:06;4.83;;;3.40;;
6436;SDS011;3251;53.550;9.918;2023-09-07T12:12:38;4.80;;;3.63;;
6436;SDS011;3251;53.550;9.918;2023-09-07T12:15:05;6.37;;;4.60;;
6436;SDS011;3251;53.550;9.918;2023-09-07T12:17:31;5.73;;;4.57;;
6436;SDS011;3251;53.550;9.918;2023-09-07T12:19:57;4.17;;;3.70;;
6436;SDS011;3251;53.550;9.918;2023-09-07T12:22:24;3.70;;;3.50;;
6436;SDS011;3251;53.550;9.918;2023-09-07T12:24:50;6.40;;;4.03;;
6436;SDS011;3251;53.550;9.918;2023-09-07T12:27:16;4.83;;;4.33;;
6436;SDS011;3251;53.550;9.918;2023-09-07T12:29:43;4.80;;;4.50;;
6436;SDS011;3251;53.550;9.918;2023-09-07T12:32:10;8.50;;;4.47;;
6436;SDS011;3251;53.550;9.918;2023-09-07T12:34:36;3.60;;;3.40;;
6436;SDS011;3251;53.550;9.918;2023-09-07T12:37:04;4.50;;;4.20;;
6436;SDS011;3251;53.550;9.918;2023-09-07T12:39:30;8.67;;;3.90;;
6436;SDS011;3251;53.550;9.918;2023-09-07T12:41:56;3.47;;;3.27;;
6436;SDS011;3251;53.550;9.918;2023-09-07T12:44:23;4.23;;;3.90;;
6436;SDS011;3251;53.550;9.918;2023-09-07T12:46:49;3.40;;;3.20;;
6436;SDS011;3251;53.550;9.918;2023-09-07T12:49:15;5.13;;;3.37;;
6436;SDS011;3251;53.550;9.918;2023-09-07T12:51:41;4.30;;;4.00;;
6436;SDS011;3251;53.550;9.918;2023-09-07T12:54:07;3.80;;;3.50;;
6436;SDS011;3251;53.550;9.918;2023-09-07T12:56:34;3.10;;;2.90;;
6436;SDS011;3251;53.550;9.918;2023-09-07T12:59:00;5.40;;;4.37;;
6436;SDS011;3251;53.550;9.918;2023-09-07T13:01:28;4.10;;;3.70;;
6436;SDS011;3251;53.550;9.918;2023-09-07T13:03:56;3.87;;;3.57;;
6436;SDS011;3251;53.550;9.918;2023-09-07T13:06:22;8.00;;;4.27;;
6436;SDS011;3251;53.550;9.918;2023-09-07T13:08:48;4.80;;;4.40;;
6436;SDS011;3251;53.550;9.918;2023-09-07T13:11:14;4.53;;;4.10;;
6436;SDS011;3251;53.550;9.918;2023-09-07T13:13:40;5.97;;;4.30;;
6436;SDS011;3251;53.550;9.918;2023-09-07T13:16:06;2.80;;;2.70;;
6436;SDS011;3251;53.550;9.918;2023-09-07T13:18:32;5.83;;;3.90;;
6436;SDS011;3251;53.550;9.918;2023-09-07T13:20:58;4.03;;;3.67;;
6436;SDS011;3251;53.550;9.918;2023-09-07T13:23:29;5.20;;;3.43;;
6436;SDS011;3251;53.550;9.918;2023-09-07T13:25:56;10.60;;;4.27;;
6436;SDS011;3251;53.550;9.918;2023-09-07T13:28:22;3.97;;;3.60;;
6436;SDS011;3251;53.550;9.918;2023-09-07T13:30:49;10.43;;;4.50;;
6436;SDS011;3251;53.550;9.918;2023-09-07T13:33:15;3.90;;;3.60;;
6436;SDS011;3251;53.550;9.918;2023-09-07T13:35:42;6.03;;;3.07;;
6436;SDS011;3251;53.550;9.918;2023-09-07T13:38:09;3.60;;;3.30;;
6436;SDS011;3251;53.550;9.918;2023-09-07T13:40:35;4.17;;;3.87;;
6436;SDS011;3251;53.550;9.918;2023-09-07T13:43:02;4.87;;;3.87;;
6436;SDS011;3251;53.550;9.918;2023-09-07T13:45:28;3.90;;;3.60;;
6436;SDS011;3251;53.550;9.918;2023-09-07T13:47:54;4.23;;;3.47;;
6436;SDS011;3251;53.550;9.918;2023-09-07T13:50:21;4.83;;;3.20;;
6436;SDS011;3251;53.550;9.918;2023-09-07T13:52:47;6.53;;;3.00;;
6436;SDS011;3251;53.550;9.918;2023-09-07T13:55:14;5.50;;;3.40;;
6436;SDS011;3251;53.550;9.918;2023-09-07T13:57:40;15.40;;;4.03;;
6436;SDS011;3251;53.550;9.918;2023-09-07T14:00:06;3.97;;;2.97;;
6436;SDS011;3251;53.550;9.918;2023-09-07T14:02:32;3.80;;;2.80;;
6436;SDS011;3251;53.550;9.918;2023-09-07T14:04:59;4.63;;;3.27;;
6436;SDS011;3251;53.550;9.918;2023-09-07T14:07:25;7.33;;;2.90;;
6436;SDS011;3251;53.550;9.918;2023-09-07T14:09:51;6.63;;;4.90;;
6436;SDS011;3251;53.550;9.918;2023-09-07T14:12:18;5.77;;;4.40;;
6436;SDS011;3251;53.550;9.918;2023-09-07T14:14:44;3.40;;;3.10;;
6436;SDS011;3251;53.550;9.918;2023-09-07T14:17:10;8.07;;;4.53;;
6436;SDS011;3251;53.550;9.918;2023-09-07T14:19:36;7.13;;;3.97;;
6436;SDS011;3251;53.550;9.918;2023-09-07T14:22:02;5.73;;;3.83;;
6436;SDS011;3251;53.550;9.918;2023-09-07T14:24:28;6.33;;;3.70;;
6436;SDS011;3251;53.550;9.918;2023-09-07T14:26:55;3.43;;;3.10;;
6436;SDS011;3251;53.550;9.918;2023-09-07T14:29:21;4.63;;;3.40;;
6436;SDS011;3251;53.550;9.918;2023-09-07T14:31:47;3.40;;;3.10;;
6436;SDS011;3251;53.550;9.918;2023-09-07T14:34:13;3.50;;;3.30;;
6436;SDS011;3251;53.550;9.918;2023-09-07T14:36:39;3.23;;;2.93;;
6436;SDS011;3251;53.550;9.918;2023-09-07T14:39:06;2.90;;;2.70;;
6436;SDS011;3251;53.550;9.918;2023-09-07T14:41:33;9.47;;;3.30;;
6436;SDS011;3251;53.550;9.918;2023-09-07T14:43:59;4.10;;;3.70;;
6436;SDS011;3251;53.550;9.918;2023-09-07T14:46:26;2.90;;;2.70;;
6436;SDS011;3251;53.550;9.918;2023-09-07T14:48:52;3.40;;;3.20;;
6436;SDS011;3251;53.550;9.918;2023-09-07T14:51:18;5.17;;;2.97;;
6436;SDS011;3251;53.550;9.918;2023-09-07T14:53:44;3.57;;;3.27;;
6436;SDS011;3251;53.550;9.918;2023-09-07T14:56:11;5.43;;;3.10;;
6436;SDS011;3251;53.550;9.918;2023-09-07T14:58:37;3.20;;;3.00;;
6436;SDS011;3251;53.550;9.918;2023-09-07T15:01:04;4.00;;;3.50;;
6436;SDS011;3251;53.550;9.918;2023-09-07T15:03:30;8.43;;;3.20;;
6436;SDS011;3251;53.550;9.918;2023-09-07T15:05:56;3.73;;;3.00;;
6436;SDS011;3251;53.550;9.918;2023-09-07T15:08:23;3.83;;;2.90;;
6436;SDS011;3251;53.550;9.918;2023-09-07T15:10:49;4.00;;;3.73;;
6436;SDS011;3251;53.550;9.918;2023-09-07T15:13:15;4.47;;;3.30;;
6436;SDS011;3251;53.550;9.918;2023-09-07T15:15:42;5.43;;;3.10;;
6436;SDS011;3251;53.550;9.918;2023-09-07T15:18:08;10.80;;;3.77;;
6436;SDS011;3251;53.550;9.918;2023-09-07T15:20:35;4.17;;;3.90;;
6436;SDS011;3251;53.550;9.918;2023-09-07T15:23:01;4.20;;;3.90;;
6436;SDS011;3251;53.550;9.918;2023-09-07T15:25:28;3.63;;;3.33;;
6436;SDS011;3251;53.550;9.918;2023-09-07T15:27:55;8.00;;;4.30;;
6436;SDS011;3251;53.550;9.918;2023-09-07T15:30:22;3.87;;;3.47;;
6436;SDS011;3251;53.550;9.918;2023-09-07T15:32:48;4.83;;;4.13;;
6436;SDS011;3251;53.550;9.918;2023-09-07T15:35:15;6.33;;;4.20;;
6436;SDS011;3251;53.550;9.918;2023-09-07T15:37:42;3.83;;;3.53;;
6436;SDS011;3251;53.550;9.918;2023-09-07T15:40:11;4.07;;;3.77;;
6436;SDS011;3251;53.550;9.918;2023-09-07T15:42:37;3.87;;;2.67;;
6436;SDS011;3251;53.550;9.918;2023-09-07T15:45:04;4.40;;;3.23;;
6436;SDS011;3251;53.550;9.918;2023-09-07T15:47:31;5.20;;;4.47;;
6436;SDS011;3251;53.550;9.918;2023-09-07T15:49:59;4.63;;;4.23;;
6436;SDS011;3251;53.550;9.918;2023-09-07T15:52:25;4.27;;;3.93;;
6436;SDS011;3251;53.550;9.918;2023-09-07T15:54:51;4.40;;;4.10;;
6436;SDS011;3251;53.550;9.918;2023-09-07T15:57:18;4.83;;;4.47;;
6436;SDS011;3251;53.550;9.918;2023-09-07T15:59:44;6.53;;;4.13;;
6436;SDS011;3251;53.550;9.918;2023-09-07T16:02:10;3.70;;;3.40;;
6436;SDS011;3251;53.550;9.918;2023-09-07T16:04:36;6.37;;;4.63;;
6436;SDS011;3251;53.550;9.918;2023-09-07T16:07:03;7.13;;;3.57;;
6436;SDS011;3251;53.550;9.918;2023-09-07T16:09:29;8.67;;;4.30;;
6436;SDS011;3251;53.550;9.918;2023-09-07T16:11:55;5.30;;;3.80;;
6436;SDS011;3251;53.550;9.918;2023-09-07T16:14:21;4.17;;;3.83;;
6436;SDS011;3251;53.550;9.918;2023-09-07T16:16:48;4.23;;;3.83;;
6436;SDS011;3251;53.550;9.918;2023-09-07T16:19:14;4.67;;;3.90;;
6436;SDS011;3251;53.550;9.918;2023-09-07T16:21:40;4.03;;;3.57;;
6436;SDS011;3251;53.550;9.918;2023-09-07T16:24:06;3.87;;;3.57;;
6436;SDS011;3251;53.550;9.918;2023-09-07T16:26:33;3.90;;;3.70;;
6436;SDS011;3251;53.550;9.918;2023-09-07T16:28:59;4.00;;;3.63;;
6436;SDS011;3251;53.550;9.918;2023-09-07T16:31:25;4.03;;;3.67;;
6436;SDS011;3251;53.550;9.918;2023-09-07T16:33:52;5.20;;;4.33;;
6436;SDS011;3251;53.550;9.918;2023-09-07T16:36:18;3.87;;;3.50;;
6436;SDS011;3251;53.550;9.918;2023-09-07T16:38:44;5.17;;;3.80;;
6436;SDS011;3251;53.550;9.918;2023-09-07T16:41:10;5.20;;;4.03;;
6436;SDS011;3251;53.550;9.918;2023-09-07T16:43:36;3.90;;;3.57;;
6436;SDS011;3251;53.550;9.918;2023-09-07T16:46:03;14.60;;;4.70;;
6436;SDS011;3251;53.550;9.918;2023-09-07T16:48:29;4.00;;;3.70;;
6436;SDS011;3251;53.550;9.918;2023-09-07T16:50:55;4.40;;;4.10;;
6436;SDS011;3251;53.550;9.918;2023-09-07T16:53:22;6.37;;;3.83;;
6436;SDS011;3251;53.550;9.918;2023-09-07T16:55:48;5.23;;;4.20;;
6436;SDS011;3251;53.550;9.918;2023-09-07T16:58:14;5.80;;;4.50;;
6436;SDS011;3251;53.550;9.918;2023-09-07T17:00:40;4.93;;;4.43;;
6436;SDS011;3251;53.550;9.918;2023-09-07T17:03:06;5.10;;;4.10;;
6436;SDS011;3251;53.550;9.918;2023-09-07T17:05:33;4.77;;;3.57;;
6436;SDS011;3251;53.550;9.918;2023-09-07T17:07:59;5.37;;;4.37;;
6436;SDS011;3251;53.550;9.918;2023-09-07T17:10:26;7.63;;;4.20;;
6436;SDS011;3251;53.550;9.918;2023-09-07T17:12:52;6.13;;;5.43;;
6436;SDS011;3251;53.550;9.918;2023-09-07T17:15:19;6.13;;;5.20;;
6436;SDS011;3251;53.550;9.918;2023-09-07T17:17:49;6.23;;;4.63;;
6436;SDS011;3251;53.550;9.918;2023-09-07T17:20:15;7.50;;;5.50;;
6436;SDS011;3251;53.550;9.918;2023-09-07T17:22:41;9.67;;;5.13;;
6436;SDS011;3251;53.550;9.918;2023-09-07T17:25:17;5.30;;;4.80;;
6436;SDS011;3251;53.550;9.918;2023-09-07T17:27:44;5.27;;;4.87;;
6436;SDS011;3251;53.550;9.918;2023-09-07T17:30:10;4.17;;;3.93;;
6436;SDS011;3251;53.550;9.918;2023-09-07T17:32:37;5.53;;;4.53;;
6436;SDS011;3251;53.550;9.918;2023-09-07T17:35:04;5.17;;;4.20;;
6436;SDS011;3251;53.550;9.918;2023-09-07T17:37:30;4.67;;;4.20;;
6436;SDS011;3251;53.550;9.918;2023-09-07T17:39:57;5.27;;;3.67;;
6436;SDS011;3251;53.550;9.918;2023-09-07T17:42:23;5.77;;;4.60;;
6436;SDS011;3251;53.550;9.918;2023-09-07T17:44:49;12.40;;;4.30;;
6436;SDS011;3251;53.550;9.918;2023-09-07T17:47:16;10.57;;;4.73;;
6436;SDS011;3251;53.550;9.918;2023-09-07T17:49:42;5.53;;;4.40;;
6436;SDS011;3251;53.550;9.918;2023-09-07T17:52:08;15.20;;;4.43;;
6436;SDS011;3251;53.550;9.918;2023-09-07T17:54:34;5.00;;;4.00;;
6436;SDS011;3251;53.550;9.918;2023-09-07T17:57:00;5.23;;;4.73;;
6436;SDS011;3251;53.550;9.918;2023-09-07T17:59:26;3.97;;;3.70;;
6436;SDS011;3251;53.550;9.918;2023-09-07T18:01:56;12.20;;;4.53;;
6436;SDS011;3251;53.550;9.918;2023-09-07T18:04:22;6.10;;;4.93;;
6436;SDS011;3251;53.550;9.918;2023-09-07T18:06:48;6.33;;;5.27;;
6436;SDS011;3251;53.550;9.918;2023-09-07T18:09:14;6.40;;;5.80;;
6436;SDS011;3251;53.550;9.918;2023-09-07T18:11:40;8.30;;;5.67;;
6436;SDS011;3251;53.550;9.918;2023-09-07T18:14:09;6.40;;;5.80;;
6436;SDS011;3251;53.550;9.918;2023-09-07T18:16:35;6.63;;;5.93;;
6436;SDS011;3251;53.550;9.918;2023-09-07T18:19:01;14.37;;;5.53;;
6436;SDS011;3251;53.550;9.918;2023-09-07T18:21:28;5.07;;;4.67;;
6436;SDS011;3251;53.550;9.918;2023-09-07T18:23:54;10.73;;;8.10;;
6436;SDS011;3251;53.550;9.918;2023-09-07T18:26:20;5.03;;;4.53;;
6436;SDS011;3251;53.550;9.918;2023-09-07T18:28:46;8.20;;;5.43;;
6436;SDS011;3251;53.550;9.918;2023-09-07T18:31:12;8.93;;;4.77;;
6436;SDS011;3251;53.550;9.918;2023-09-07T18:33:39;15.67;;;5.50;;
6436;SDS011;3251;53.550;9.918;2023-09-07T18:36:05;10.17;;;5.20;;
6436;SDS011;3251;53.550;9.918;2023-09-07T18:38:32;12.10;;;6.37;;
6436;SDS011;3251;53.550;9.918;2023-09-07T18:40:59;6.50;;;5.33;;
6436;SDS011;3251;53.550;9.918;2023-09-07T18:43:28;8.63;;;5.60;;
6436;SDS011;3251;53.550;9.918;2023-09-07T18:45:55;5.90;;;5.33;;
6436;SDS011;3251;53.550;9.918;2023-09-07T18:48:22;8.63;;;5.33;;
6436;SDS011;3251;53.550;9.918;2023-09-07T18:50:48;26.17;;;5.70;;
6436;SDS011;3251;53.550;9.918;2023-09-07T18:53:14;6.23;;;5.60;;
6436;SDS011;3251;53.550;9.918;2023-09-07T18:55:40;10.30;;;6.17;;
6436;SDS011;3251;53.550;9.918;2023-09-07T18:58:07;14.23;;;5.70;;
6436;SDS011;3251;53.550;9.918;2023-09-07T19:00:33;9.20;;;5.80;;
6436;SDS011;3251;53.550;9.918;2023-09-07T19:03:03;8.73;;;7.03;;
6436;SDS011;3251;53.550;9.918;2023-09-07T19:05:29;9.10;;;7.60;;
6436;SDS011;3251;53.550;9.918;2023-09-07T19:07:55;13.63;;;7.90;;
6436;SDS011;3251;53.550;9.918;2023-09-07T19:10:21;14.60;;;8.67;;
6436;SDS011;3251;53.550;9.918;2023-09-07T19:12:48;8.23;;;7.20;;
6436;SDS011;3251;53.550;9.918;2023-09-07T19:15:14;13.50;;;7.60;;
6436;SDS011;3251;53.550;9.918;2023-09-07T19:17:40;11.47;;;7.30;;
6436;SDS011;3251;53.550;9.918;2023-09-07T19:20:07;7.73;;;6.97;;
6436;SDS011;3251;53.550;9.918;2023-09-07T19:22:33;10.57;;;8.20;;
6436;SDS011;3251;53.550;9.918;2023-09-07T19:24:59;11.93;;;8.00;;
6436;SDS011;3251;53.550;9.918;2023-09-07T19:27:26;11.83;;;8.23;;
6436;SDS011;3251;53.550;9.918;2023-09-07T19:29:52;18.63;;;7.10;;
6436;SDS011;3251;53.550;9.918;2023-09-07T19:32:21;11.60;;;6.77;;
6436;SDS011;3251;53.550;9.918;2023-09-07T19:34:48;21.73;;;6.50;;
6436;SDS011;3251;53.550;9.918;2023-09-07T19:37:14;7.43;;;6.67;;
6436;SDS011;3251;53.550;9.918;2023-09-07T19:39:40;11.70;;;7.80;;
6436;SDS011;3251;53.550;9.918;2023-09-07T19:42:08;8.57;;;6.67;;
6436;SDS011;3251;53.550;9.918;2023-09-07T19:44:35;9.53;;;6.77;;
6436;SDS011;3251;53.550;9.918;2023-09-07T19:47:01;13.93;;;8.03;;
6436;SDS011;3251;53.550;9.918;2023-09-07T19:49:27;9.40;;;7.50;;
6436;SDS011;3251;53.550;9.918;2023-09-07T19:51:54;10.30;;;6.77;;
6436;SDS011;3251;53.550;9.918;2023-09-07T19:54:20;11.87;;;7.40;;
6436;SDS011;3251;53.550;9.918;2023-09-07T19:56:46;7.73;;;6.97;;
6436;SDS011;3251;53.550;9.918;2023-09-07T19:59:15;15.03;;;7.77;;
6436;SDS011;3251;53.550;9.918;2023-09-07T20:01:51;14.10;;;7.47;;
6436;SDS011;3251;53.550;9.918;2023-09-07T20:04:19;8.67;;;5.90;;
6436;SDS011;3251;53.550;9.918;2023-09-07T20:06:45;12.93;;;5.90;;
6436;SDS011;3251;53.550;9.918;2023-09-07T20:09:12;11.87;;;6.80;;
6436;SDS011;3251;53.550;9.918;2023-09-07T20:11:39;13.03;;;6.63;;
6436;SDS011;3251;53.550;9.918;2023-09-07T20:14:05;18.30;;;6.57;;
6436;SDS011;3251;53.550;9.918;2023-09-07T20:16:31;9.33;;;5.90;;
6436;SDS011;3251;53.550;9.918;2023-09-07T20:18:59;8.30;;;6.47;;
6436;SDS011;3251;53.550;9.918;2023-09-07T20:21:25;10.20;;;6.87;;
6436;SDS011;3251;53.550;9.918;2023-09-07T20:23:51;8.33;;;5.60;;
6436;SDS011;3251;53.550;9.918;2023-09-07T20:26:18;12.07;;;6.03;;
6436;SDS011;3251;53.550;9.918;2023-09-07T20:28:44;10.40;;;5.67;;
6436;SDS011;3251;53.550;9.918;2023-09-07T20:31:13;7.73;;;6.10;;
6436;SDS011;3251;53.550;9.918;2023-09-07T20:33:39;17.03;;;6.87;;
6436;SDS011;3251;53.550;9.918;2023-09-07T20:36:05;6.83;;;5.87;;
6436;SDS011;3251;53.550;9.918;2023-09-07T20:38:32;6.60;;;5.90;;
6436;SDS011;3251;53.550;9.918;2023-09-07T20:40:58;11.80;;;7.87;;
6436;SDS011;3251;53.550;9.918;2023-09-07T20:43:26;9.53;;;5.47;;
6436;SDS011;3251;53.550;9.918;2023-09-07T20:45:52;8.67;;;6.30;;
6436;SDS011;3251;53.550;9.918;2023-09-07T20:48:21;6.97;;;6.30;;
6436;SDS011;3251;53.550;9.918;2023-09-07T20:50:47;5.90;;;5.30;;